sensor_id;sensor_type;location;lat;lon;timestamp;temperature;humidity
33007;DHT22;19361;51.598;7.650;2023-07-31T00:02:04;19.80;70.10
33007;DHT22;19361;51.598;7.650;2023-07-31T00:07:25;19.90;69.50
33007;DHT22;19361;51.598;7.650;2023-07-31T00:12:46;19.80;69.10
33007;DHT22;19361;51.598;7.650;2023-07-31T00:18:07;19.70;69.00
33007;DHT22;19361;51.598;7.650;2023-07-31T00:23:28;19.70;69.00
33007;DHT22;19361;51.598;7.650;2023-07-31T00:28:49;19.60;69.10
33007;DHT22;19361;51.598;7.650;2023-07-31T00:34:11;19.60;69.10
33007;DHT22;19361;51.598;7.650;2023-07-31T00:39:34;19.50;69.10
33007;DHT22;19361;51.598;7.650;2023-07-31T00:44:55;19.60;69.20
33007;DHT22;19361;51.598;7.650;2023-07-31T00:50:16;19.60;68.90
33007;DHT22;19361;51.598;7.650;2023-07-31T00:55:37;19.60;68.90
33007;DHT22;19361;51.598;7.650;2023-07-31T01:00:58;19.60;69.10
33007;DHT22;19361;51.598;7.650;2023-07-31T01:12:14;19.60;70.40
33007;DHT22;19361;51.598;7.650;2023-07-31T01:17:37;19.50;70.80
33007;DHT22;19361;51.598;7.650;2023-07-31T01:28:33;19.50;72.00
33007;DHT22;19361;51.598;7.650;2023-07-31T01:34:22;19.60;72.10
33007;DHT22;19361;51.598;7.650;2023-07-31T01:39:43;19.50;71.80
33007;DHT22;19361;51.598;7.650;2023-07-31T01:45:04;19.60;72.50
33007;DHT22;19361;51.598;7.650;2023-07-31T01:50:26;19.50;72.30
33007;DHT22;19361;51.598;7.650;2023-07-31T01:55:47;19.60;72.50
33007;DHT22;19361;51.598;7.650;2023-07-31T02:01:08;19.60;72.40
33007;DHT22;19361;51.598;7.650;2023-07-31T02:06:29;19.60;72.40
33007;DHT22;19361;51.598;7.650;2023-07-31T02:11:50;19.60;72.30
33007;DHT22;19361;51.598;7.650;2023-07-31T02:17:11;19.60;72.40
33007;DHT22;19361;51.598;7.650;2023-07-31T02:22:32;19.60;72.40
33007;DHT22;19361;51.598;7.650;2023-07-31T02:27:53;19.50;72.30
33007;DHT22;19361;51.598;7.650;2023-07-31T02:33:14;19.60;72.30
33007;DHT22;19361;51.598;7.650;2023-07-31T02:38:37;19.60;72.40
33007;DHT22;19361;51.598;7.650;2023-07-31T02:43:58;19.60;72.30
33007;DHT22;19361;51.598;7.650;2023-07-31T02:49:19;19.50;72.00
33007;DHT22;19361;51.598;7.650;2023-07-31T02:54:40;19.60;72.00
33007;DHT22;19361;51.598;7.650;2023-07-31T03:00:01;19.50;71.80
33007;DHT22;19361;51.598;7.650;2023-07-31T03:05:23;19.50;71.80
33007;DHT22;19361;51.598;7.650;2023-07-31T03:10:44;19.50;71.70
33007;DHT22;19361;51.598;7.650;2023-07-31T03:16:05;19.50;71.80
33007;DHT22;19361;51.598;7.650;2023-07-31T03:21:26;19.50;71.70
33007;DHT22;19361;51.598;7.650;2023-07-31T03:26:48;19.50;71.50
33007;DHT22;19361;51.598;7.650;2023-07-31T03:32:09;19.50;71.30
33007;DHT22;19361;51.598;7.650;2023-07-31T03:37:30;19.50;71.20
33007;DHT22;19361;51.598;7.650;2023-07-31T03:42:51;19.50;71.10
33007;DHT22;19361;51.598;7.650;2023-07-31T03:48:15;19.50;71.00
33007;DHT22;19361;51.598;7.650;2023-07-31T03:53:37;19.50;70.70
33007;DHT22;19361;51.598;7.650;2023-07-31T03:58:58;19.50;70.60
33007;DHT22;19361;51.598;7.650;2023-07-31T04:04:19;19.50;70.70
33007;DHT22;19361;51.598;7.650;2023-07-31T04:09:40;19.50;70.60
33007;DHT22;19361;51.598;7.650;2023-07-31T04:15:01;19.50;70.50
33007;DHT22;19361;51.598;7.650;2023-07-31T04:20:22;19.50;70.70
33007;DHT22;19361;51.598;7.650;2023-07-31T04:25:43;19.60;70.60
33007;DHT22;19361;51.598;7.650;2023-07-31T04:31:04;19.60;70.60
33007;DHT22;19361;51.598;7.650;2023-07-31T04:36:25;19.60;70.60
33007;DHT22;19361;51.598;7.650;2023-07-31T04:41:46;19.60;70.40
33007;DHT22;19361;51.598;7.650;2023-07-31T04:47:07;19.70;70.30
33007;DHT22;19361;51.598;7.650;2023-07-31T04:52:28;19.70;70.10
33007;DHT22;19361;51.598;7.650;2023-07-31T04:57:49;19.70;70.10
33007;DHT22;19361;51.598;7.650;2023-07-31T05:03:10;19.70;70.10
33007;DHT22;19361;51.598;7.650;2023-07-31T05:08:32;19.80;70.10
33007;DHT22;19361;51.598;7.650;2023-07-31T05:13:54;19.80;70.10
33007;DHT22;19361;51.598;7.650;2023-07-31T05:19:15;19.80;70.00
33007;DHT22;19361;51.598;7.650;2023-07-31T05:24:36;19.80;70.30
33007;DHT22;19361;51.598;7.650;2023-07-31T05:29:57;19.80;70.40
33007;DHT22;19361;51.598;7.650;2023-07-31T05:35:18;19.90;70.60
33007;DHT22;19361;51.598;7.650;2023-07-31T05:40:39;19.90;70.80
33007;DHT22;19361;51.598;7.650;2023-07-31T05:46:00;19.90;71.10
33007;DHT22;19361;51.598;7.650;2023-07-31T05:51:22;20.00;71.00
33007;DHT22;19361;51.598;7.650;2023-07-31T05:56:43;20.00;71.00
33007;DHT22;19361;51.598;7.650;2023-07-31T06:02:04;20.00;70.90
33007;DHT22;19361;51.598;7.650;2023-07-31T06:07:25;20.10;71.00
33007;DHT22;19361;51.598;7.650;2023-07-31T06:12:46;20.10;71.00
33007;DHT22;19361;51.598;7.650;2023-07-31T06:18:07;20.10;71.10
33007;DHT22;19361;51.598;7.650;2023-07-31T06:23:29;20.10;71.20
33007;DHT22;19361;51.598;7.650;2023-07-31T06:28:50;20.10;71.30
33007;DHT22;19361;51.598;7.650;2023-07-31T06:34:11;20.20;71.50
33007;DHT22;19361;51.598;7.650;2023-07-31T06:39:32;20.30;71.70
33007;DHT22;19361;51.598;7.650;2023-07-31T06:44:53;20.20;71.60
33007;DHT22;19361;51.598;7.650;2023-07-31T06:50:14;20.30;71.60
33007;DHT22;19361;51.598;7.650;2023-07-31T06:55:35;20.30;71.50
33007;DHT22;19361;51.598;7.650;2023-07-31T07:00:56;20.30;71.80
33007;DHT22;19361;51.598;7.650;2023-07-31T07:06:18;20.30;71.60
33007;DHT22;19361;51.598;7.650;2023-07-31T07:11:39;20.30;72.00
33007;DHT22;19361;51.598;7.650;2023-07-31T07:17:00;20.30;71.90
33007;DHT22;19361;51.598;7.650;2023-07-31T07:22:21;20.30;72.00
33007;DHT22;19361;51.598;7.650;2023-07-31T07:27:42;20.40;72.40
33007;DHT22;19361;51.598;7.650;2023-07-31T07:33:03;20.40;72.40
33007;DHT22;19361;51.598;7.650;2023-07-31T07:38:24;20.50;72.50
33007;DHT22;19361;51.598;7.650;2023-07-31T07:43:45;20.50;72.20
33007;DHT22;19361;51.598;7.650;2023-07-31T07:49:06;20.50;72.40
33007;DHT22;19361;51.598;7.650;2023-07-31T07:54:27;20.50;72.30
33007;DHT22;19361;51.598;7.650;2023-07-31T07:59:48;20.50;72.30
33007;DHT22;19361;51.598;7.650;2023-07-31T08:05:09;20.50;72.20
33007;DHT22;19361;51.598;7.650;2023-07-31T08:10:30;20.50;72.40
33007;DHT22;19361;51.598;7.650;2023-07-31T08:15:51;20.50;72.60
33007;DHT22;19361;51.598;7.650;2023-07-31T08:21:12;20.50;72.90
33007;DHT22;19361;51.598;7.650;2023-07-31T08:26:34;20.50;72.70
33007;DHT22;19361;51.598;7.650;2023-07-31T08:31:55;20.60;72.60
33007;DHT22;19361;51.598;7.650;2023-07-31T08:37:16;20.60;72.80
33007;DHT22;19361;51.598;7.650;2023-07-31T08:42:48;20.70;72.90
33007;DHT22;19361;51.598;7.650;2023-07-31T08:48:11;20.80;73.00
33007;DHT22;19361;51.598;7.650;2023-07-31T08:53:33;20.80;72.70
33007;DHT22;19361;51.598;7.650;2023-07-31T08:58:55;20.90;72.30
33007;DHT22;19361;51.598;7.650;2023-07-31T09:04:18;20.90;72.00
33007;DHT22;19361;51.598;7.650;2023-07-31T09:09:40;20.90;72.00
33007;DHT22;19361;51.598;7.650;2023-07-31T09:15:01;20.90;72.00
33007;DHT22;19361;51.598;7.650;2023-07-31T09:20:23;20.90;72.50
33007;DHT22;19361;51.598;7.650;2023-07-31T09:25:44;20.90;72.60
33007;DHT22;19361;51.598;7.650;2023-07-31T09:31:05;20.80;72.40
33007;DHT22;19361;51.598;7.650;2023-07-31T09:36:29;20.80;72.70
33007;DHT22;19361;51.598;7.650;2023-07-31T09:41:54;20.80;73.00
33007;DHT22;19361;51.598;7.650;2023-07-31T09:47:23;20.70;72.90
33007;DHT22;19361;51.598;7.650;2023-07-31T09:52:44;20.80;72.90
33007;DHT22;19361;51.598;7.650;2023-07-31T09:58:08;20.90;72.00
33007;DHT22;19361;51.598;7.650;2023-07-31T10:03:31;20.90;73.00
33007;DHT22;19361;51.598;7.650;2023-07-31T10:08:53;20.90;73.10
33007;DHT22;19361;51.598;7.650;2023-07-31T10:14:15;21.00;73.20
33007;DHT22;19361;51.598;7.650;2023-07-31T10:19:36;21.00;73.10
33007;DHT22;19361;51.598;7.650;2023-07-31T10:24:59;21.00;73.00
33007;DHT22;19361;51.598;7.650;2023-07-31T10:30:27;21.00;72.90
33007;DHT22;19361;51.598;7.650;2023-07-31T10:35:50;21.10;73.00
33007;DHT22;19361;51.598;7.650;2023-07-31T10:41:14;21.10;73.00
33007;DHT22;19361;51.598;7.650;2023-07-31T10:46:36;21.10;73.40
33007;DHT22;19361;51.598;7.650;2023-07-31T10:51:57;21.20;73.20
33007;DHT22;19361;51.598;7.650;2023-07-31T10:57:20;21.20;73.20
33007;DHT22;19361;51.598;7.650;2023-07-31T11:03:05;21.20;73.40
33007;DHT22;19361;51.598;7.650;2023-07-31T11:08:29;21.30;73.10
33007;DHT22;19361;51.598;7.650;2023-07-31T11:13:54;21.30;73.30
33007;DHT22;19361;51.598;7.650;2023-07-31T11:19:24;21.30;73.10
33007;DHT22;19361;51.598;7.650;2023-07-31T11:24:45;21.30;73.20
33007;DHT22;19361;51.598;7.650;2023-07-31T11:30:08;21.30;73.10
33007;DHT22;19361;51.598;7.650;2023-07-31T11:35:31;21.30;73.40
33007;DHT22;19361;51.598;7.650;2023-07-31T11:40:57;21.30;73.30
33007;DHT22;19361;51.598;7.650;2023-07-31T11:46:20;21.20;73.00
33007;DHT22;19361;51.598;7.650;2023-07-31T11:51:41;21.20;73.00
33007;DHT22;19361;51.598;7.650;2023-07-31T11:57:03;21.10;73.30
33007;DHT22;19361;51.598;7.650;2023-07-31T12:02:25;21.10;73.20
33007;DHT22;19361;51.598;7.650;2023-07-31T12:07:51;21.10;73.30
33007;DHT22;19361;51.598;7.650;2023-07-31T12:13:21;21.10;73.50
33007;DHT22;19361;51.598;7.650;2023-07-31T12:18:49;21.30;73.90
33007;DHT22;19361;51.598;7.650;2023-07-31T12:24:10;21.40;73.80
33007;DHT22;19361;51.598;7.650;2023-07-31T12:29:35;21.50;73.20
33007;DHT22;19361;51.598;7.650;2023-07-31T12:35:00;21.60;73.40
33007;DHT22;19361;51.598;7.650;2023-07-31T12:40:22;21.70;74.00
33007;DHT22;19361;51.598;7.650;2023-07-31T12:45:43;21.90;73.60
33007;DHT22;19361;51.598;7.650;2023-07-31T12:51:04;22.20;72.60
33007;DHT22;19361;51.598;7.650;2023-07-31T12:56:25;22.40;71.50
33007;DHT22;19361;51.598;7.650;2023-07-31T13:01:46;22.40;70.60
33007;DHT22;19361;51.598;7.650;2023-07-31T13:07:07;22.30;70.40
33007;DHT22;19361;51.598;7.650;2023-07-31T13:12:28;22.30;70.40
33007;DHT22;19361;51.598;7.650;2023-07-31T13:17:50;22.10;70.30
33007;DHT22;19361;51.598;7.650;2023-07-31T13:23:11;22.00;70.60
33007;DHT22;19361;51.598;7.650;2023-07-31T13:28:32;21.90;70.80
33007;DHT22;19361;51.598;7.650;2023-07-31T13:33:53;21.90;71.20
33007;DHT22;19361;51.598;7.650;2023-07-31T13:39:14;21.90;71.60
33007;DHT22;19361;51.598;7.650;2023-07-31T13:44:35;21.90;72.00
33007;DHT22;19361;51.598;7.650;2023-07-31T13:49:56;22.00;71.70
33007;DHT22;19361;51.598;7.650;2023-07-31T13:55:17;22.10;71.70
33007;DHT22;19361;51.598;7.650;2023-07-31T14:00:38;22.10;71.20
33007;DHT22;19361;51.598;7.650;2023-07-31T14:05:59;22.10;71.30
33007;DHT22;19361;51.598;7.650;2023-07-31T14:11:20;22.10;71.20
33007;DHT22;19361;51.598;7.650;2023-07-31T14:16:42;22.10;71.30
33007;DHT22;19361;51.598;7.650;2023-07-31T14:22:04;22.10;71.30
33007;DHT22;19361;51.598;7.650;2023-07-31T14:27:25;22.10;71.10
33007;DHT22;19361;51.598;7.650;2023-07-31T14:32:46;22.10;71.30
33007;DHT22;19361;51.598;7.650;2023-07-31T14:38:08;22.30;71.60
33007;DHT22;19361;51.598;7.650;2023-07-31T14:43:29;22.40;71.80
33007;DHT22;19361;51.598;7.650;2023-07-31T14:48:50;22.60;71.10
33007;DHT22;19361;51.598;7.650;2023-07-31T14:54:11;22.70;70.20
33007;DHT22;19361;51.598;7.650;2023-07-31T14:59:32;22.70;69.40
33007;DHT22;19361;51.598;7.650;2023-07-31T15:04:53;22.70;69.20
33007;DHT22;19361;51.598;7.650;2023-07-31T15:10:14;22.80;69.30
33007;DHT22;19361;51.598;7.650;2023-07-31T15:15:35;22.80;69.30
33007;DHT22;19361;51.598;7.650;2023-07-31T15:20:56;22.80;68.20
33007;DHT22;19361;51.598;7.650;2023-07-31T15:26:17;22.80;68.20
33007;DHT22;19361;51.598;7.650;2023-07-31T15:31:38;22.70;67.80
33007;DHT22;19361;51.598;7.650;2023-07-31T15:36:59;22.70;67.90
33007;DHT22;19361;51.598;7.650;2023-07-31T15:42:21;22.60;67.70
33007;DHT22;19361;51.598;7.650;2023-07-31T15:47:42;22.60;67.90
33007;DHT22;19361;51.598;7.650;2023-07-31T15:53:03;22.70;68.30
33007;DHT22;19361;51.598;7.650;2023-07-31T15:58:24;22.70;68.10
33007;DHT22;19361;51.598;7.650;2023-07-31T16:03:45;22.70;67.70
33007;DHT22;19361;51.598;7.650;2023-07-31T16:09:06;22.70;67.60
33007;DHT22;19361;51.598;7.650;2023-07-31T16:14:27;22.70;67.50
33007;DHT22;19361;51.598;7.650;2023-07-31T16:19:48;22.70;67.70
33007;DHT22;19361;51.598;7.650;2023-07-31T16:25:10;22.70;67.80
33007;DHT22;19361;51.598;7.650;2023-07-31T16:30:31;22.70;68.00
33007;DHT22;19361;51.598;7.650;2023-07-31T16:35:52;22.60;68.00
33007;DHT22;19361;51.598;7.650;2023-07-31T16:41:13;22.60;68.10
33007;DHT22;19361;51.598;7.650;2023-07-31T16:46:34;22.60;68.20
33007;DHT22;19361;51.598;7.650;2023-07-31T16:51:57;22.50;68.20
33007;DHT22;19361;51.598;7.650;2023-07-31T16:57:18;22.60;68.90
33007;DHT22;19361;51.598;7.650;2023-07-31T17:02:40;22.50;69.10
33007;DHT22;19361;51.598;7.650;2023-07-31T17:08:01;22.50;69.20
33007;DHT22;19361;51.598;7.650;2023-07-31T17:13:22;22.40;69.50
33007;DHT22;19361;51.598;7.650;2023-07-31T17:18:43;22.40;69.90
33007;DHT22;19361;51.598;7.650;2023-07-31T17:24:04;22.30;70.10
33007;DHT22;19361;51.598;7.650;2023-07-31T17:29:28;22.30;70.50
33007;DHT22;19361;51.598;7.650;2023-07-31T17:34:50;22.20;70.50
33007;DHT22;19361;51.598;7.650;2023-07-31T17:40:11;22.10;70.60
33007;DHT22;19361;51.598;7.650;2023-07-31T17:45:35;22.00;70.70
33007;DHT22;19361;51.598;7.650;2023-07-31T17:50:56;22.00;70.50
33007;DHT22;19361;51.598;7.650;2023-07-31T17:56:17;21.90;70.30
33007;DHT22;19361;51.598;7.650;2023-07-31T18:01:38;21.80;70.50
33007;DHT22;19361;51.598;7.650;2023-07-31T18:06:59;21.80;70.40
33007;DHT22;19361;51.598;7.650;2023-07-31T18:12:20;21.70;70.50
33007;DHT22;19361;51.598;7.650;2023-07-31T18:17:42;21.70;70.80
33007;DHT22;19361;51.598;7.650;2023-07-31T18:23:03;21.60;70.90
33007;DHT22;19361;51.598;7.650;2023-07-31T18:28:24;21.50;70.80
33007;DHT22;19361;51.598;7.650;2023-07-31T18:33:45;21.40;71.20
33007;DHT22;19361;51.598;7.650;2023-07-31T18:39:06;21.40;71.60
33007;DHT22;19361;51.598;7.650;2023-07-31T18:44:27;21.30;71.80
33007;DHT22;19361;51.598;7.650;2023-07-31T18:49:48;21.20;71.80
33007;DHT22;19361;51.598;7.650;2023-07-31T18:55:09;21.20;72.00
33007;DHT22;19361;51.598;7.650;2023-07-31T19:00:31;21.10;72.30
33007;DHT22;19361;51.598;7.650;2023-07-31T19:06:00;21.00;72.50
33007;DHT22;19361;51.598;7.650;2023-07-31T19:11:23;21.00;72.80
33007;DHT22;19361;51.598;7.650;2023-07-31T19:16:44;21.00;72.80
33007;DHT22;19361;51.598;7.650;2023-07-31T19:22:05;20.90;73.10
33007;DHT22;19361;51.598;7.650;2023-07-31T19:27:26;20.80;73.00
33007;DHT22;19361;51.598;7.650;2023-07-31T19:32:47;20.80;73.40
33007;DHT22;19361;51.598;7.650;2023-07-31T19:38:08;20.80;73.50
33007;DHT22;19361;51.598;7.650;2023-07-31T19:43:29;20.70;73.70
33007;DHT22;19361;51.598;7.650;2023-07-31T19:48:50;20.70;73.90
33007;DHT22;19361;51.598;7.650;2023-07-31T19:54:15;20.70;74.20
33007;DHT22;19361;51.598;7.650;2023-07-31T19:59:37;20.60;74.30
33007;DHT22;19361;51.598;7.650;2023-07-31T20:04:58;20.60;74.40
33007;DHT22;19361;51.598;7.650;2023-07-31T20:10:19;20.60;74.30
33007;DHT22;19361;51.598;7.650;2023-07-31T20:15:40;20.60;74.30
33007;DHT22;19361;51.598;7.650;2023-07-31T20:21:01;20.60;74.40
33007;DHT22;19361;51.598;7.650;2023-07-31T20:26:22;20.60;74.50
33007;DHT22;19361;51.598;7.650;2023-07-31T20:31:43;20.60;74.60
33007;DHT22;19361;51.598;7.650;2023-07-31T20:37:04;20.60;74.60
33007;DHT22;19361;51.598;7.650;2023-07-31T20:42:26;20.50;74.70
33007;DHT22;19361;51.598;7.650;2023-07-31T20:47:48;20.50;74.80
33007;DHT22;19361;51.598;7.650;2023-07-31T20:53:09;20.50;74.90
33007;DHT22;19361;51.598;7.650;2023-07-31T20:58:30;20.50;75.10
33007;DHT22;19361;51.598;7.650;2023-07-31T21:03:51;20.60;75.20
33007;DHT22;19361;51.598;7.650;2023-07-31T21:09:14;20.50;75.30
33007;DHT22;19361;51.598;7.650;2023-07-31T21:14:35;20.50;75.40
33007;DHT22;19361;51.598;7.650;2023-07-31T21:19:56;20.50;75.50
33007;DHT22;19361;51.598;7.650;2023-07-31T21:25:17;20.50;75.60
33007;DHT22;19361;51.598;7.650;2023-07-31T21:30:38;20.50;75.60
33007;DHT22;19361;51.598;7.650;2023-07-31T21:35:59;20.60;75.80
33007;DHT22;19361;51.598;7.650;2023-07-31T21:41:20;20.50;75.70
33007;DHT22;19361;51.598;7.650;2023-07-31T21:46:41;20.50;75.60
33007;DHT22;19361;51.598;7.650;2023-07-31T21:52:03;20.50;75.70
33007;DHT22;19361;51.598;7.650;2023-07-31T21:57:25;20.50;75.70
33007;DHT22;19361;51.598;7.650;2023-07-31T22:02:46;20.50;75.80
33007;DHT22;19361;51.598;7.650;2023-07-31T22:08:07;20.50;75.60
33007;DHT22;19361;51.598;7.650;2023-07-31T22:13:28;20.50;75.70
33007;DHT22;19361;51.598;7.650;2023-07-31T22:18:49;20.50;75.60
33007;DHT22;19361;51.598;7.650;2023-07-31T22:24:10;20.50;75.60
33007;DHT22;19361;51.598;7.650;2023-07-31T22:29:31;20.50;75.60
33007;DHT22;19361;51.598;7.650;2023-07-31T22:34:52;20.50;75.70
33007;DHT22;19361;51.598;7.650;2023-07-31T22:40:13;20.50;75.60
33007;DHT22;19361;51.598;7.650;2023-07-31T22:45:36;20.50;75.70
33007;DHT22;19361;51.598;7.650;2023-07-31T22:50:57;20.50;75.70
33007;DHT22;19361;51.598;7.650;2023-07-31T22:56:18;20.50;75.70
33007;DHT22;19361;51.598;7.650;2023-07-31T23:01:39;20.50;75.60
33007;DHT22;19361;51.598;7.650;2023-07-31T23:07:00;20.50;75.40
33007;DHT22;19361;51.598;7.650;2023-07-31T23:12:21;20.50;75.10
33007;DHT22;19361;51.598;7.650;2023-07-31T23:17:42;20.40;74.80
33007;DHT22;19361;51.598;7.650;2023-07-31T23:23:03;20.30;74.60
33007;DHT22;19361;51.598;7.650;2023-07-31T23:28:24;20.30;74.60
33007;DHT22;19361;51.598;7.650;2023-07-31T23:33:45;20.20;74.60
33007;DHT22;19361;51.598;7.650;2023-07-31T23:39:06;20.10;74.60
33007;DHT22;19361;51.598;7.650;2023-07-31T23:44:27;20.10;74.70
33007;DHT22;19361;51.598;7.650;2023-07-31T23:49:49;20.00;74.80
33007;DHT22;19361;51.598;7.650;2023-07-31T23:55:10;20.00;74.70
